Time;durP1;ratioP1;P1;durP2;ratioP2;P2;SDS_P1;SDS_P2;PMS_P1;PMS_P2;Temp;Humidity;BMP_temperature;BMP_pressure;BME280_temperature;BME280_humidity;BME280_pressure;Samples;Min_cycle;Max_cycle;Signal;HPM_P1;HPM_P2
2022/11/26 00:00:24;;;;;;;21.00;5.30;;;5.90;99.90;;;;;;5052157;28;20040;-59
2022/11/26 00:02:52;;;;;;;21.40;6.15;;;5.80;99.90;;;;;;5052052;28;20397;-59
2022/11/26 00:05:18;;;;;;;23.38;5.07;;;5.70;99.90;;;;;;5051939;28;20128;-59
2022/11/26 00:07:53;;;;;;;17.48;5.35;;;5.70;99.90;;;;;;5052219;28;20087;-59
2022/11/26 00:10:26;;;;;;;19.33;4.72;;;5.80;99.90;;;;;;5051992;28;20037;-60
2022/11/26 00:12:51;;;;;;;15.80;5.20;;;5.90;99.90;;;;;;5051935;28;20033;-59
2022/11/26 00:15:26;;;;;;;19.83;5.65;;;5.80;99.90;;;;;;5051905;28;20564;-58
2022/11/26 00:17:52;;;;;;;18.92;4.90;;;5.60;99.90;;;;;;5051999;28;20043;-60
2022/11/26 00:20:20;;;;;;;18.92;5.30;;;5.50;99.90;;;;;;5052183;28;20116;-58
2022/11/26 00:22:49;;;;;;;16.10;5.25;;;5.40;99.90;;;;;;5051943;28;20037;-59
2022/11/26 00:25:25;;;;;;;18.92;5.28;;;5.40;99.90;;;;;;5051931;28;20405;-60
2022/11/26 00:27:53;;;;;;;18.13;5.35;;;5.60;99.90;;;;;;5051692;28;20136;-58
2022/11/26 00:30:22;;;;;;;18.40;4.97;;;5.60;99.90;;;;;;5051630;28;20041;-57
2022/11/26 00:32:48;;;;;;;23.17;5.45;;;5.70;99.90;;;;;;5051704;28;20045;-60
2022/11/26 00:35:14;;;;;;;16.33;4.65;;;5.70;99.90;;;;;;5051940;28;20041;-59
2022/11/26 00:38:00;;;;;;;16.13;5.25;;;5.30;99.90;;;;;;5051836;28;20072;-59
2022/11/26 00:40:30;;;;;;;17.23;5.18;;;5.50;99.90;;;;;;5051344;28;20053;-58
2022/11/26 00:42:56;;;;;;;15.13;5.43;;;5.60;99.90;;;;;;5051927;28;20401;-60
2022/11/26 00:45:29;;;;;;;19.15;5.13;;;5.50;99.90;;;;;;5051597;28;20047;-59
2022/11/26 00:48:00;;;;;;;16.25;5.22;;;5.40;99.90;;;;;;5051666;28;20116;-58
2022/11/26 00:50:29;;;;;;;18.95;5.80;;;5.30;99.90;;;;;;5051595;28;20482;-58
2022/11/26 00:52:55;;;;;;;17.52;4.60;;;5.40;99.90;;;;;;5051530;28;20037;-58
2022/11/26 00:55:30;;;;;;;15.63;5.00;;;5.30;99.90;;;;;;5051752;28;20037;-60
2022/11/26 00:57:56;;;;;;;25.42;4.97;;;5.30;99.90;;;;;;5035197;28;20083;-58
2022/11/26 01:00:24;;;;;;;17.30;5.78;;;5.30;99.90;;;;;;5031663;28;20045;-60
2022/11/26 01:02:51;;;;;;;24.35;5.50;;;5.60;99.90;;;;;;5014093;28;20371;-58
2022/11/26 01:05:17;;;;;;;14.38;4.80;;;5.30;99.90;;;;;;5033324;28;20453;-59
2022/11/26 01:07:43;;;;;;;17.30;5.60;;;5.20;99.90;;;;;;5035502;28;20556;-59
2022/11/26 01:10:22;;;;;;;19.17;5.55;;;5.20;99.90;;;;;;5035507;28;20049;-58
2022/11/26 01:12:49;;;;;;;17.05;5.32;;;5.30;99.90;;;;;;5035242;28;20050;-57
2022/11/26 01:15:15;;;;;;;15.45;5.45;;;5.30;99.90;;;;;;5034994;28;20440;-58
2022/11/26 01:17:41;;;;;;;14.88;5.05;;;5.30;99.90;;;;;;5035422;28;20045;-59
2022/11/26 01:20:17;;;;;;;16.98;4.82;;;5.30;99.90;;;;;;5035110;28;20060;-59
2022/11/26 01:22:43;;;;;;;16.23;4.82;;;5.40;99.90;;;;;;5035353;28;20112;-58
2022/11/26 01:25:08;;;;;;;17.75;5.07;;;5.40;99.90;;;;;;5035223;28;20121;-59
2022/11/26 01:27:34;;;;;;;17.20;5.85;;;5.40;99.90;;;;;;5035201;28;20052;-59
2022/11/26 01:30:00;;;;;;;14.52;5.63;;;5.20;99.90;;;;;;5035068;28;20080;-59
2022/11/26 01:32:25;;;;;;;25.65;6.05;;;5.40;99.90;;;;;;5034809;28;20500;-57
2022/11/26 01:34:51;;;;;;;17.23;4.90;;;5.30;99.90;;;;;;5035240;28;20041;-58
2022/11/26 01:37:16;;;;;;;18.85;5.50;;;5.30;99.90;;;;;;5034999;28;20037;-60
2022/11/26 01:39:42;;;;;;;18.63;5.50;;;5.40;99.90;;;;;;5034737;28;20046;-57
2022/11/26 01:42:29;;;;;;;19.02;5.43;;;5.40;99.90;;;;;;5016946;28;20045;-55
2022/11/26 01:44:55;;;;;;;18.45;5.60;;;5.10;99.90;;;;;;5034501;28;20496;-59
2022/11/26 01:47:27;;;;;;;19.25;5.07;;;5.40;99.90;;;;;;5034716;28;20048;-59
2022/11/26 01:50:30;;;;;;;25.13;5.25;;;5.40;99.90;;;;;;5034548;28;20493;-57
2022/11/26 01:53:03;;;;;;;;;;;5.20;99.90;;;;;;5035164;28;20074;-58
2022/11/26 01:55:40;;;;;;;17.95;6.35;;;5.10;99.90;;;;;;5016889;28;19917;-60
2022/11/26 01:58:11;;;;;;;17.15;5.32;;;5.20;99.90;;;;;;5052075;28;20037;-58
2022/11/26 02:00:37;;;;;;;18.60;5.28;;;5.30;99.90;;;;;;5036521;28;20550;-58
2022/11/26 02:03:04;;;;;;;14.88;6.30;;;5.40;99.90;;;;;;5054319;28;20044;-59
2022/11/26 02:05:34;;;;;;;19.02;5.65;;;5.30;99.90;;;;;;5054286;28;20112;-60
2022/11/26 02:08:01;;;;;;;23.08;6.57;;;5.20;99.90;;;;;;5054098;28;20098;-58
2022/11/26 02:10:27;;;;;;;18.45;4.82;;;5.10;99.90;;;;;;5054355;28;20401;-60
2022/11/26 02:12:53;;;;;;;13.15;4.93;;;5.10;99.90;;;;;;5054068;28;20037;-59
2022/11/26 02:15:19;;;;;;;20.50;5.72;;;5.40;99.90;;;;;;5035996;28;20079;-59
2022/11/26 02:17:52;;;;;;;26.20;5.40;;;5.10;99.90;;;;;;5053422;28;20481;-59
2022/11/26 02:20:48;;;;;;;17.38;5.32;;;5.40;99.90;;;;;;5036111;28;20041;-59
2022/11/26 02:23:41;;;;;;;13.35;5.63;;;5.30;99.90;;;;;;5054158;28;20055;-58
2022/11/26 02:26:07;;;;;;;14.35;5.75;;;5.10;99.90;;;;;;5053676;28;20049;-59
2022/11/26 02:28:50;;;;;;;20.25;6.20;;;5.50;99.90;;;;;;5053554;28;20092;-58
2022/11/26 02:31:39;;;;;;;17.63;5.20;;;5.50;99.90;;;;;;5053933;28;20041;-60
2022/11/26 02:34:10;;;;;;;17.10;5.93;;;5.20;99.90;;;;;;5053660;28;20366;-59
2022/11/26 02:37:21;;;;;;;20.48;5.35;;;5.50;99.90;;;;;;5053858;28;20036;-58
2022/11/26 02:39:47;;;;;;;16.83;5.30;;;5.30;99.90;;;;;;4972559;28;20483;-60
2022/11/26 02:42:28;;;;;;;14.73;5.45;;;5.30;99.90;;;;;;5036770;28;20049;-60
2022/11/26 02:45:03;;;;;;;15.88;5.13;;;5.40;99.90;;;;;;5053747;28;20094;-57
2022/11/26 02:47:31;;;;;;;20.75;6.47;;;5.10;99.90;;;;;;5053532;28;20040;-59
2022/11/26 02:49:59;;;;;;;18.08;5.28;;;5.10;99.90;;;;;;5053594;28;20044;-60
2022/11/26 02:52:26;;;;;;;16.10;5.22;;;5.30;99.90;;;;;;5035967;28;20048;-60
2022/11/26 02:54:54;;;;;;;19.33;5.70;;;5.10;99.90;;;;;;5053855;28;20041;-59
2022/11/26 02:57:25;;;;;;;20.27;5.25;;;5.40;99.90;;;;;;5042379;28;20120;-59
2022/11/26 02:59:50;;;;;;;15.40;5.30;;;5.20;99.90;;;;;;5033501;28;20106;-59
2022/11/26 03:02:30;;;;;;;17.17;5.50;;;5.00;99.90;;;;;;5015736;28;20144;-60
2022/11/26 03:04:58;;;;;;;15.10;5.60;;;5.00;99.90;;;;;;5033319;28;20049;-60
2022/11/26 03:07:27;;;;;;;24.48;6.20;;;5.20;99.90;;;;;;5033291;28;20450;-55
2022/11/26 03:09:55;;;;;;;15.52;5.45;;;5.40;99.90;;;;;;4999149;28;20119;-58
2022/11/26 03:12:21;;;;;;;11.15;4.72;;;5.20;99.90;;;;;;5015472;28;20130;-59
2022/11/26 03:14:47;;;;;;;16.55;5.60;;;5.40;99.90;;;;;;5032940;28;20053;-58
2022/11/26 03:17:13;;;;;;;24.75;6.38;;;5.30;99.90;;;;;;5033049;28;20375;-59
2022/11/26 03:19:39;;;;;;;19.77;6.43;;;5.00;99.90;;;;;;5032992;28;20090;-59
2022/11/26 03:22:05;;;;;;;18.08;5.18;;;5.30;99.90;;;;;;5032902;28;20491;-59
2022/11/26 03:24:31;;;;;;;21.00;6.07;;;5.00;99.90;;;;;;5032835;28;20083;-57
2022/11/26 03:26:57;;;;;;;16.35;5.15;;;5.50;99.90;;;;;;5032581;28;20045;-59
2022/11/26 03:29:23;;;;;;;22.95;6.40;;;5.30;99.90;;;;;;5014181;28;20038;-59
2022/11/26 03:31:48;;;;;;;19.95;5.65;;;5.10;99.90;;;;;;5032624;28;20107;-58
2022/11/26 03:34:14;;;;;;;19.48;5.72;;;5.40;99.90;;;;;;5032660;28;20470;-59
2022/11/26 03:36:40;;;;;;;22.85;5.95;;;5.20;99.90;;;;;;5032719;28;20041;-59
2022/11/26 03:39:05;;;;;;;22.88;7.63;;;5.10;99.90;;;;;;5014925;28;20048;-58
2022/11/26 03:41:31;;;;;;;17.63;5.65;;;5.10;99.90;;;;;;5032573;28;20091;-57
2022/11/26 03:43:57;;;;;;;18.77;5.90;;;5.10;99.90;;;;;;5014741;28;20045;-57
2022/11/26 03:46:23;;;;;;;21.27;6.40;;;5.50;99.90;;;;;;4998415;28;20049;-57
2022/11/26 03:48:48;;;;;;;18.75;5.95;;;5.30;99.90;;;;;;5032407;28;20049;-57
2022/11/26 03:51:14;;;;;;;16.33;5.55;;;5.20;99.90;;;;;;5032546;28;20037;-60
2022/11/26 03:53:40;;;;;;;18.42;6.40;;;5.40;99.90;;;;;;5032399;28;20095;-59
2022/11/26 03:56:06;;;;;;;17.92;6.10;;;5.40;99.90;;;;;;5033051;28;20456;-59
2022/11/26 03:58:33;;;;;;;22.92;6.95;;;5.30;99.90;;;;;;5052128;28;20539;-59
2022/11/26 04:00:58;;;;;;;25.52;6.88;;;5.40;99.90;;;;;;5052232;28;20044;-59
2022/11/26 04:03:24;;;;;;;16.55;6.15;;;5.40;99.90;;;;;;5052330;28;20544;-59
2022/11/26 04:05:50;;;;;;;15.77;6.30;;;5.20;99.90;;;;;;5051907;28;20045;-60
2022/11/26 04:08:16;;;;;;;22.10;7.43;;;5.10;99.90;;;;;;5052200;28;20033;-59
2022/11/26 04:10:41;;;;;;;23.50;8.65;;;5.20;99.90;;;;;;5052031;28;20041;-58
2022/11/26 04:13:07;;;;;;;20.83;7.60;;;5.10;99.90;;;;;;5051823;28;20405;-59
2022/11/26 04:15:33;;;;;;;19.00;7.25;;;5.10;99.90;;;;;;5051836;28;20057;-58
2022/11/26 04:17:59;;;;;;;22.08;6.75;;;5.40;99.90;;;;;;5051880;28;20052;-59
2022/11/26 04:20:24;;;;;;;19.35;6.60;;;5.30;99.90;;;;;;5051933;28;20051;-57
2022/11/26 04:22:50;;;;;;;18.58;6.43;;;5.50;99.90;;;;;;5051942;28;20087;-56
2022/11/26 04:25:16;;;;;;;22.20;6.85;;;5.50;99.90;;;;;;5051961;28;20052;-58
2022/11/26 04:27:41;;;;;;;17.13;6.40;;;5.20;99.90;;;;;;5051701;28;20493;-59
2022/11/26 04:30:08;;;;;;;18.77;6.38;;;5.40;99.90;;;;;;5052141;28;20489;-58
2022/11/26 04:32:34;;;;;;;24.98;6.68;;;5.20;99.90;;;;;;5051824;28;20632;-59
2022/11/26 04:34:59;;;;;;;21.40;7.95;;;5.50;99.90;;;;;;5051820;28;20091;-58
2022/11/26 04:37:25;;;;;;;17.63;6.70;;;5.30;99.90;;;;;;5051872;28;20037;-59
2022/11/26 04:39:51;;;;;;;18.98;7.00;;;5.10;99.90;;;;;;5053031;28;20073;-56
2022/11/26 04:42:16;;;;;;;18.65;7.28;;;5.20;99.90;;;;;;5055779;28;20478;-58
2022/11/26 04:44:44;;;;;;;17.73;6.15;;;5.30;99.90;;;;;;5056062;28;20049;-58
2022/11/26 04:47:10;;;;;;;23.65;7.13;;;5.10;99.90;;;;;;5055966;28;20037;-58
2022/11/26 04:49:36;;;;;;;21.88;6.43;;;5.00;99.90;;;;;;5055815;28;20076;-58
2022/11/26 04:52:02;;;;;;;15.75;6.72;;;5.20;99.90;;;;;;5037949;28;20111;-59
2022/11/26 04:54:27;;;;;;;20.23;7.00;;;5.00;99.90;;;;;;5055663;28;20044;-60
2022/11/26 04:56:53;;;;;;;20.15;7.70;;;5.10;99.90;;;;;;5047856;28;20374;-59
2022/11/26 04:59:18;;;;;;;17.33;6.38;;;5.30;99.90;;;;;;5035802;28;20246;-59
2022/11/26 05:01:44;;;;;;;14.93;7.13;;;4.90;99.90;;;;;;5035446;28;20056;-59
2022/11/26 05:04:10;;;;;;;20.50;7.03;;;5.40;99.90;;;;;;5035700;28;20041;-58
2022/11/26 05:06:35;;;;;;;19.10;6.80;;;5.30;99.90;;;;;;5017652;28;20462;-57
2022/11/26 05:09:01;;;;;;;20.10;7.50;;;5.20;99.90;;;;;;5035576;28;20517;-57
2022/11/26 05:11:27;;;;;;;16.13;5.97;;;5.10;99.90;;;;;;5035222;28;20052;-58
2022/11/26 05:13:52;;;;;;;19.02;6.50;;;5.00;99.90;;;;;;5035445;28;20050;-59
2022/11/26 05:16:18;;;;;;;23.48;6.90;;;4.90;99.90;;;;;;5035197;28;20073;-57
2022/11/26 05:18:43;;;;;;;22.88;7.03;;;4.80;99.90;;;;;;5035352;28;20038;-59
2022/11/26 05:21:09;;;;;;;22.08;6.72;;;4.90;99.90;;;;;;5017657;28;20045;-58
2022/11/26 05:23:35;;;;;;;19.85;7.68;;;4.90;99.90;;;;;;5017375;28;20401;-60
2022/11/26 05:26:00;;;;;;;18.85;7.45;;;5.00;99.90;;;;;;5035016;28;20084;-57
2022/11/26 05:28:26;;;;;;;18.45;7.60;;;4.70;99.90;;;;;;5035119;28;20037;-59
2022/11/26 05:31:00;;;;;;;24.13;7.80;;;5.10;99.90;;;;;;5035057;28;20045;-58
2022/11/26 05:33:26;;;;;;;21.33;7.18;;;5.10;99.90;;;;;;5034802;28;20059;-59
2022/11/26 05:35:52;;;;;;;24.70;7.90;;;4.90;99.90;;;;;;5035017;28;20382;-58
2022/11/26 05:38:17;;;;;;;18.42;7.40;;;4.80;99.90;;;;;;5034868;28;20045;-58
2022/11/26 05:40:43;;;;;;;21.33;7.97;;;5.00;99.90;;;;;;5034779;28;20046;-58
2022/11/26 05:43:09;;;;;;;25.23;8.32;;;5.20;99.90;;;;;;5034947;28;20048;-58
2022/11/26 05:45:35;;;;;;;19.08;7.88;;;4.80;99.90;;;;;;5034494;28;20445;-55
2022/11/26 05:48:00;;;;;;;23.67;8.43;;;5.20;99.90;;;;;;5034766;28;20052;-59
2022/11/26 05:50:26;;;;;;;27.17;8.25;;;4.70;99.90;;;;;;5034689;28;20057;-60
2022/11/26 05:52:52;;;;;;;23.50;7.38;;;5.20;99.90;;;;;;5033677;28;20033;-58
2022/11/26 05:55:18;;;;;;;21.58;9.20;;;4.90;99.90;;;;;;5034440;28;20041;-59
2022/11/26 05:57:44;;;;;;;18.63;8.30;;;4.90;99.90;;;;;;5048865;28;20045;-58
2022/11/26 06:00:11;;;;;;;22.15;9.32;;;4.80;99.90;;;;;;5054286;28;20051;-60
2022/11/26 06:02:37;;;;;;;24.77;8.50;;;5.00;99.90;;;;;;5054491;28;20045;-56
2022/11/26 06:05:03;;;;;;;15.70;8.32;;;4.80;99.90;;;;;;5054795;28;20124;-59
2022/11/26 06:07:29;;;;;;;20.65;8.27;;;4.90;99.90;;;;;;5036624;28;20486;-60
2022/11/26 06:09:55;;;;;;;23.80;8.85;;;4.70;99.90;;;;;;5040344;28;20098;-60
2022/11/26 06:12:20;;;;;;;27.67;9.63;;;4.70;99.90;;;;;;5045876;28;20068;-58
2022/11/26 06:14:46;;;;;;;24.70;9.52;;;4.70;99.90;;;;;;5035853;28;20061;-58
2022/11/26 06:17:12;;;;;;;28.63;9.93;;;4.60;99.90;;;;;;5034088;28;20120;-57
2022/11/26 06:19:38;;;;;;;21.52;8.35;;;4.70;99.90;;;;;;5034173;28;20034;-58
2022/11/26 06:22:03;;;;;;;25.05;9.38;;;4.60;99.90;;;;;;5033945;28;20045;-58
2022/11/26 06:24:29;;;;;;;23.60;8.82;;;5.10;99.90;;;;;;5034160;28;20049;-57
2022/11/26 06:26:55;;;;;;;19.77;9.20;;;5.00;99.90;;;;;;5032946;28;20498;-57
2022/11/26 06:29:20;;;;;;;22.08;8.25;;;4.60;99.90;;;;;;5034011;28;20078;-59
2022/11/26 06:31:46;;;;;;;19.23;8.48;;;4.90;99.90;;;;;;5034046;28;20029;-57
2022/11/26 06:34:14;;;;;;;21.73;8.27;;;4.60;99.90;;;;;;5032633;28;20385;-58
2022/11/26 06:36:39;;;;;;;21.77;8.77;;;4.50;99.90;;;;;;5033922;28;20100;-58
2022/11/26 06:39:05;;;;;;;22.77;10.25;;;4.70;99.90;;;;;;5033828;28;20468;-58
2022/11/26 06:41:31;;;;;;;20.33;9.45;;;4.90;99.90;;;;;;5033803;28;20077;-59
2022/11/26 06:43:58;;;;;;;26.80;8.93;;;4.90;99.90;;;;;;5033617;28;20041;-57
2022/11/26 06:46:24;;;;;;;29.23;10.82;;;4.70;99.90;;;;;;5033605;28;20125;-58
2022/11/26 06:48:50;;;;;;;20.98;9.07;;;4.60;99.90;;;;;;5033639;28;20464;-58
2022/11/26 06:51:19;;;;;;;25.50;8.05;;;4.90;99.90;;;;;;5033469;28;20037;-58
2022/11/26 06:53:45;;;;;;;26.60;7.97;;;4.90;99.90;;;;;;5033488;28;20820;-58
2022/11/26 06:56:13;;;;;;;24.58;7.70;;;4.50;99.90;;;;;;5031631;28;20124;-57
2022/11/26 06:58:38;;;;;;;21.73;8.55;;;4.80;99.90;;;;;;5013709;28;20046;-58
2022/11/26 07:01:16;;;;;;;27.27;8.38;;;4.80;99.90;;;;;;5013702;28;20045;-58
2022/11/26 07:03:41;;;;;;;25.85;8.13;;;4.70;99.90;;;;;;5013343;28;20038;-58
2022/11/26 07:06:22;;;;;;;27.25;8.80;;;4.90;99.90;;;;;;5013383;28;20129;-59
2022/11/26 07:08:51;;;;;;;23.45;7.80;;;4.80;99.90;;;;;;5012351;28;20073;-58
2022/11/26 07:11:17;;;;;;;20.85;7.60;;;4.80;99.90;;;;;;5013487;28;20046;-58
2022/11/26 07:13:43;;;;;;;15.93;7.50;;;4.80;99.90;;;;;;5015541;28;20038;-55
2022/11/26 07:16:09;;;;;;;20.33;8.27;;;4.70;99.90;;;;;;5033081;28;20060;-57
2022/11/26 07:18:35;;;;;;;25.92;8.98;;;4.50;99.90;;;;;;5032996;28;20045;-57
2022/11/26 07:21:07;;;;;;;24.73;9.00;;;4.60;99.90;;;;;;5032977;28;20041;-56
2022/11/26 07:23:32;;;;;;;17.93;8.50;;;4.90;99.90;;;;;;5032845;28;20088;-57
2022/11/26 07:25:59;;;;;;;19.25;7.72;;;4.50;99.90;;;;;;5015106;28;20037;-56
2022/11/26 07:28:25;;;;;;;25.00;8.35;;;4.30;99.90;;;;;;5032962;28;20045;-57
2022/11/26 07:30:51;;;;;;;21.88;8.25;;;4.80;99.90;;;;;;5032577;28;20056;-58
2022/11/26 07:33:16;;;;;;;23.73;8.73;;;4.80;99.90;;;;;;5032644;28;20052;-56
2022/11/26 07:35:42;;;;;;;23.27;9.73;;;4.90;99.90;;;;;;5032700;28;20049;-55
2022/11/26 07:38:08;;;;;;;24.30;8.70;;;4.50;99.90;;;;;;5032833;28;20045;-56
2022/11/26 07:40:33;;;;;;;21.27;9.38;;;4.50;99.90;;;;;;5032650;28;20079;-55
2022/11/26 07:42:59;;;;;;;22.95;8.63;;;4.90;99.90;;;;;;5032648;28;20517;-58
2022/11/26 07:45:25;;;;;;;20.00;9.00;;;4.60;99.90;;;;;;5032384;28;20053;-55
2022/11/26 07:47:51;;;;;;;17.80;8.63;;;4.50;99.90;;;;;;5033683;28;20038;-55
2022/11/26 07:50:17;;;;;;;24.63;8.65;;;4.60;99.90;;;;;;5035445;28;20041;-57
2022/11/26 07:52:42;;;;;;;17.98;9.30;;;4.70;99.90;;;;;;5035827;28;20038;-57
2022/11/26 07:55:08;;;;;;;24.35;8.50;;;5.00;99.90;;;;;;5015824;28;20045;-58
2022/11/26 07:57:34;;;;;;;17.95;8.13;;;4.70;99.90;;;;;;5027900;28;20048;-58
2022/11/26 08:00:00;;;;;;;21.27;8.95;;;4.70;99.90;;;;;;5034447;28;20044;-58
2022/11/26 08:02:25;;;;;;;22.45;8.77;;;5.10;99.90;;;;;;5034351;28;20037;-56
2022/11/26 08:04:51;;;;;;;20.00;9.00;;;5.10;99.90;;;;;;5034491;28;20048;-58
2022/11/26 08:07:17;;;;;;;19.02;8.60;;;5.10;99.90;;;;;;5051936;28;20045;-57
2022/11/26 08:09:42;;;;;;;22.20;10.07;;;4.70;99.90;;;;;;5034116;28;20041;-56
2022/11/26 08:12:08;;;;;;;18.00;8.43;;;4.80;99.90;;;;;;5034538;28;20611;-57
2022/11/26 08:14:34;;;;;;;21.98;9.80;;;4.80;99.90;;;;;;5051299;28;20437;-58
2022/11/26 08:16:59;;;;;;;26.00;9.50;;;5.10;99.90;;;;;;5052278;28;20041;-58
2022/11/26 08:19:25;;;;;;;17.35;8.63;;;5.10;99.90;;;;;;5052101;28;20075;-57
2022/11/26 08:21:51;;;;;;;19.58;9.05;;;5.30;99.90;;;;;;5052107;28;20037;-57
2022/11/26 08:24:18;;;;;;;24.92;9.85;;;4.90;99.90;;;;;;5034170;28;20103;-58
2022/11/26 08:26:44;;;;;;;17.85;9.02;;;5.40;99.90;;;;;;5051925;28;20049;-59
2022/11/26 08:29:11;;;;;;;22.83;9.35;;;5.30;99.90;;;;;;5051579;28;20091;-58
2022/11/26 08:31:39;;;;;;;21.33;9.30;;;5.30;99.90;;;;;;5051965;28;20515;-57
2022/11/26 08:34:05;;;;;;;24.95;8.85;;;5.20;99.90;;;;;;5052100;28;20404;-58
2022/11/26 08:36:31;;;;;;;25.45;9.82;;;5.50;99.90;;;;;;5034025;28;20120;-57
2022/11/26 08:38:57;;;;;;;23.25;9.80;;;5.20;99.90;;;;;;5034117;28;20083;-55
2022/11/26 08:41:23;;;;;;;22.52;9.05;;;5.30;99.90;;;;;;5051564;28;20049;-60
2022/11/26 08:43:48;;;;;;;23.05;9.70;;;5.50;99.90;;;;;;5034134;28;20045;-58
2022/11/26 08:46:14;;;;;;;28.55;11.35;;;5.80;99.90;;;;;;5051633;28;20041;-57
2022/11/26 08:48:40;;;;;;;23.63;9.40;;;5.70;99.90;;;;;;5033924;28;20397;-58
2022/11/26 08:51:09;;;;;;;23.75;10.32;;;5.30;99.90;;;;;;5051539;28;20048;-59
2022/11/26 08:53:35;;;;;;;26.55;10.38;;;5.60;99.90;;;;;;5051782;28;20068;-60
2022/11/26 08:56:06;;;;;;;18.75;9.90;;;5.40;99.90;;;;;;5051286;28;20468;-60
2022/11/26 08:58:33;;;;;;;26.33;10.25;;;5.40;99.90;;;;;;5031641;28;20037;-60
2022/11/26 09:01:07;;;;;;;23.27;10.00;;;5.90;99.90;;;;;;5031721;28;20100;-60
2022/11/26 09:03:33;;;;;;;26.60;10.30;;;5.50;99.90;;;;;;5031675;28;20041;-58
2022/11/26 09:06:03;;;;;;;21.45;9.40;;;6.10;99.90;;;;;;5031608;28;20103;-58
2022/11/26 09:08:30;;;;;;;21.80;10.38;;;5.60;99.90;;;;;;5031589;28;20513;-60
2022/11/26 09:10:55;;;;;;;22.88;10.10;;;5.70;99.90;;;;;;5031488;28;20425;-60
2022/11/26 09:13:21;;;;;;;22.13;10.77;;;5.70;99.90;;;;;;5014071;28;20060;-56
2022/11/26 09:15:48;;;;;;;25.15;10.15;;;5.80;99.90;;;;;;5031925;28;20053;-61
2022/11/26 09:18:14;;;;;;;21.85;9.73;;;5.80;99.90;;;;;;5031965;28;20124;-61
2022/11/26 09:20:39;;;;;;;18.05;9.93;;;5.80;99.90;;;;;;5014241;28;20187;-61
2022/11/26 09:23:05;;;;;;;24.35;9.93;;;6.00;99.90;;;;;;5031744;28;20505;-47
2022/11/26 09:25:31;;;;;;;20.08;9.10;;;6.20;99.90;;;;;;5031835;28;20038;-46
2022/11/26 09:27:56;;;;;;;21.83;9.35;;;6.30;99.90;;;;;;5035040;28;20043;-45
2022/11/26 09:30:22;;;;;;;24.98;9.75;;;6.10;99.90;;;;;;5034929;28;20037;-47
2022/11/26 09:32:48;;;;;;;23.00;10.50;;;6.50;99.90;;;;;;5035113;28;20076;-46
2022/11/26 09:35:13;;;;;;;24.48;9.57;;;6.10;99.90;;;;;;5035027;28;20041;-46
2022/11/26 09:37:39;;;;;;;24.38;10.18;;;6.60;99.90;;;;;;5034910;28;20056;-45
2022/11/26 09:40:05;;;;;;;21.55;9.70;;;6.60;99.90;;;;;;5017205;28;20041;-45
2022/11/26 09:42:59;;;;;;;30.92;11.23;;;6.20;99.90;;;;;;5034784;28;20038;-46
2022/11/26 09:45:40;;;;;;;23.92;9.70;;;6.70;99.90;;;;;;5034755;28;20508;-48
2022/11/26 09:48:14;;;;;;;24.20;10.38;;;6.70;99.90;;;;;;5034796;28;20516;-45
2022/11/26 09:50:41;;;;;;;22.00;10.35;;;6.30;99.90;;;;;;5016848;28;20495;-46
2022/11/26 09:53:20;;;;;;;25.80;9.82;;;6.40;99.90;;;;;;5034841;28;20099;-45
2022/11/26 09:55:51;;;;;;;27.15;11.30;;;6.30;99.90;;;;;;5034476;28;20521;-45
2022/11/26 09:58:39;;;;;;;24.67;9.45;;;6.30;99.90;;;;;;5053685;28;20116;-45
2022/11/26 10:01:06;;;;;;;23.23;10.48;;;6.80;99.90;;;;;;5036435;28;20049;-45
2022/11/26 10:03:36;;;;;;;23.20;10.10;;;6.70;99.90;;;;;;5054486;28;20049;-45
2022/11/26 10:06:05;;;;;;;22.10;10.48;;;6.50;99.90;;;;;;5054351;28;20040;-47
2022/11/26 10:08:44;;;;;;;26.05;10.20;;;6.90;99.90;;;;;;5054262;28;20048;-46
2022/11/26 10:11:27;;;;;;;23.50;11.02;;;6.90;99.90;;;;;;5054150;28;20041;-46
2022/11/26 10:14:23;;;;;;;24.25;11.05;;;6.60;99.90;;;;;;5053883;28;20049;-47
2022/11/26 10:17:20;;;;;;;21.70;9.65;;;7.00;99.90;;;;;;5054018;28;20084;-47
2022/11/26 10:19:51;;;;;;;28.38;10.75;;;6.60;99.90;;;;;;5054107;28;20178;-50
2022/11/26 10:22:24;;;;;;;20.38;10.40;;;7.10;99.90;;;;;;5054036;28;20033;-47
2022/11/26 10:24:50;;;;;;;25.65;11.10;;;7.20;99.90;;;;;;5054172;28;20408;-46
2022/11/26 10:27:19;;;;;;;26.73;11.48;;;7.20;99.90;;;;;;5053630;28;20045;-47
2022/11/26 10:29:58;;;;;;;24.67;11.32;;;7.20;99.90;;;;;;5053842;28;20504;-46
2022/11/26 10:32:35;;;;;;;29.50;11.32;;;7.30;99.90;;;;;;5036062;28;20044;-51
2022/11/26 10:35:01;;;;;;;23.48;11.20;;;6.90;99.90;;;;;;5020021;28;20045;-49
2022/11/26 10:37:27;;;;;;;28.33;11.52;;;6.80;99.90;;;;;;5053466;28;20047;-48
2022/11/26 10:40:19;;;;;;;27.65;11.30;;;7.00;99.90;;;;;;5053829;28;20044;-46
2022/11/26 10:43:19;;;;;;;23.08;11.07;;;7.10;99.90;;;;;;5052902;28;20065;-51
2022/11/26 10:45:48;;;;;;;24.00;11.73;;;7.50;99.90;;;;;;5053921;28;20044;-50
2022/11/26 10:48:25;;;;;;;29.17;13.25;;;7.40;99.90;;;;;;5053391;28;20045;-48
2022/11/26 10:51:05;;;;;;;23.98;10.65;;;7.20;99.90;;;;;;5053459;28;20124;-46
2022/11/26 10:54:09;;;;;;;28.65;11.07;;;7.50;99.90;;;;;;5053242;28;20055;-43
2022/11/26 10:56:39;;;;;;;27.17;12.93;;;7.00;99.90;;;;;;5003557;28;20385;-43
2022/11/26 10:59:17;;;;;;;28.25;12.95;;;7.10;99.90;;;;;;5033672;28;20041;-44
2022/11/26 11:01:43;;;;;;;29.52;12.70;;;7.70;99.90;;;;;;5033197;28;20045;-46
2022/11/26 11:04:30;;;;;;;23.73;11.80;;;7.10;99.90;;;;;;5033304;28;20044;-45
2022/11/26 11:06:57;;;;;;;24.38;11.50;;;7.30;99.90;;;;;;5033205;28;20053;-46
2022/11/26 11:09:24;;;;;;;28.45;11.70;;;7.80;99.90;;;;;;5033266;28;20465;-48
2022/11/26 11:12:25;;;;;;;26.63;11.55;;;7.20;99.90;;;;;;5033040;28;20045;-45
2022/11/26 11:14:52;;;;;;;28.00;13.35;;;7.30;99.90;;;;;;4914304;29;20056;-44
2022/11/26 11:17:29;;;;;;;30.70;11.93;;;7.30;99.90;;;;;;4993110;28;20108;-46
2022/11/26 11:20:20;;;;;;;29.10;12.63;;;7.40;99.90;;;;;;5013187;28;20034;-46
2022/11/26 11:22:46;;;;;;;27.67;13.05;;;7.50;99.90;;;;;;5011802;28;20128;-48
2022/11/26 11:25:24;;;;;;;25.45;11.07;;;7.90;99.90;;;;;;5012068;28;20078;-45
2022/11/26 11:27:51;;;;;;;33.25;12.82;;;7.70;99.90;;;;;;5012845;28;20494;-47
2022/11/26 11:30:31;;;;;;;25.45;12.93;;;7.40;99.90;;;;;;5013105;28;20050;-44
2022/11/26 11:33:18;;;;;;;37.03;12.95;;;7.90;99.90;;;;;;5011775;28;20104;-46
2022/11/26 11:35:55;;;;;;;30.80;12.82;;;8.10;99.90;;;;;;5013102;28;20406;-44
2022/11/26 11:38:23;;;;;;;28.65;12.27;;;8.00;99.90;;;;;;5013028;28;20052;-43
2022/11/26 11:40:49;;;;;;;26.45;11.43;;;8.10;99.90;;;;;;5012854;28;20037;-46
2022/11/26 11:43:16;;;;;;;28.50;12.57;;;7.90;99.90;;;;;;5012833;28;20045;-45
2022/11/26 11:46:08;;;;;;;31.63;12.63;;;7.60;99.90;;;;;;5012832;28;20049;-42
2022/11/26 11:48:46;;;;;;;27.88;11.43;;;8.00;99.90;;;;;;5012576;28;20045;-43
2022/11/26 11:51:34;;;;;;;30.23;13.07;;;7.70;99.90;;;;;;5012371;28;20046;-44
2022/11/26 11:54:58;;;;;;;25.70;12.13;;;7.70;99.90;;;;;;5012644;28;20053;-44
2022/11/26 11:57:46;;;;;;;25.70;12.93;;;8.10;99.90;;;;;;4987095;28;20096;-43
2022/11/26 12:00:25;;;;;;;31.27;12.15;;;7.80;99.90;;;;;;5032368;28;20044;-43
2022/11/26 12:03:21;;;;;;;30.08;13.35;;;8.20;99.90;;;;;;5032168;28;20172;-45
2022/11/26 12:06:09;;;;;;;27.13;13.07;;;8.20;99.90;;;;;;5032075;28;20137;-43
2022/11/26 12:08:49;;;;;;;35.22;12.55;;;8.40;99.90;;;;;;5031267;28;20041;-43
2022/11/26 12:11:24;;;;;;;30.75;13.32;;;8.40;99.90;;;;;;5031094;28;20104;-44
2022/11/26 12:14:15;;;;;;;29.65;12.98;;;8.00;99.90;;;;;;5033259;28;20150;-45
2022/11/26 12:16:46;;;;;;;24.90;13.75;;;7.90;99.90;;;;;;5052085;28;20142;-44
2022/11/26 12:19:34;;;;;;;36.22;12.57;;;7.90;99.90;;;;;;5034079;28;20049;-44
2022/11/26 12:22:25;;;;;;;29.83;13.30;;;8.50;99.90;;;;;;5052081;28;20500;-43
2022/11/26 12:24:53;;;;;;;32.43;13.23;;;7.90;99.90;;;;;;5051971;28;20116;-43
2022/11/26 12:27:36;;;;;;;32.88;13.13;;;8.30;99.90;;;;;;5052042;28;20049;-43
2022/11/26 12:30:13;;;;;;;30.98;12.50;;;8.50;99.90;;;;;;5051982;28;20045;-43
2022/11/26 12:33:04;;;;;;;28.73;13.55;;;7.90;99.90;;;;;;5034250;28;20495;-45
2022/11/26 12:35:33;;;;;;;29.48;12.40;;;7.90;99.90;;;;;;5050829;28;20479;-43
2022/11/26 12:38:04;;;;;;;29.02;13.45;;;8.20;99.90;;;;;;5051867;28;20429;-44
2022/11/26 12:40:33;;;;;;;29.92;12.73;;;8.40;99.90;;;;;;5051840;28;20052;-43
2022/11/26 12:43:16;;;;;;;32.72;12.40;;;7.90;99.90;;;;;;5051752;28;20044;-43
2022/11/26 12:45:57;;;;;;;27.02;12.85;;;7.90;99.90;;;;;;5033693;28;20596;-45
2022/11/26 12:48:49;;;;;;;25.55;12.48;;;8.00;99.90;;;;;;5051673;28;20055;-43
2022/11/26 12:51:43;;;;;;;31.10;13.05;;;7.90;99.90;;;;;;5051688;28;20064;-44
2022/11/26 12:54:14;;;;;;;33.22;12.93;;;8.10;99.90;;;;;;5051821;28;20174;-48
2022/11/26 12:56:53;;;;;;;31.23;12.50;;;8.40;99.90;;;;;;5046049;28;20046;-48
2022/11/26 12:59:22;;;;;;;25.90;12.80;;;7.90;99.90;;;;;;5031619;28;20045;-49
2022/11/26 13:01:47;;;;;;;26.50;12.45;;;7.90;99.90;;;;;;5034547;28;20375;-47